createdAt,value
2023-04-16T00:00:18.681Z,28.14
2023-04-16T00:01:18.687Z,28.13
2023-04-16T00:02:18.757Z,28.12
2023-04-16T00:03:18.817Z,28.13
2023-04-16T00:04:18.801Z,28.13
2023-04-16T00:05:18.684Z,28.12
2023-04-16T00:06:18.745Z,28.18
2023-04-16T00:07:18.701Z,28.12
2023-04-16T00:08:18.746Z,28.14
2023-04-16T00:09:18.730Z,28.16
2023-04-16T00:10:18.726Z,28.16
2023-04-16T00:11:18.732Z,28.13
2023-04-16T00:12:18.740Z,28.18
2023-04-16T00:13:18.770Z,28.18
2023-04-16T00:14:18.748Z,28.15
2023-04-16T00:15:18.749Z,28.14
2023-04-16T00:16:18.816Z,28.18
2023-04-16T00:17:18.788Z,28.15
2023-04-16T00:18:18.789Z,28.22
2023-04-16T00:19:18.775Z,28.17
2023-04-16T00:20:18.780Z,28.18
2023-04-16T00:21:18.795Z,28.16
2023-04-16T00:22:18.791Z,28.18
2023-04-16T00:23:18.803Z,28.19
2023-04-16T00:24:18.801Z,28.21
2023-04-16T00:25:18.817Z,28.17
2023-04-16T00:26:18.812Z,28.12
2023-04-16T00:27:18.818Z,28.17
2023-04-16T00:28:18.817Z,28.14
2023-04-16T00:29:18.882Z,28.18
2023-04-16T00:30:18.832Z,28.18
2023-04-16T00:31:18.901Z,28.18
2023-04-16T00:32:18.899Z,28.18
2023-04-16T00:33:18.848Z,28.17
2023-04-16T00:34:18.861Z,28.20
2023-04-16T00:35:18.882Z,28.18
2023-04-16T00:36:18.882Z,28.20
2023-04-16T00:37:18.897Z,28.17
2023-04-16T00:38:18.907Z,28.21
2023-04-16T00:39:18.909Z,28.17
2023-04-16T00:40:18.922Z,28.19
2023-04-16T00:41:18.932Z,28.18
2023-04-16T00:42:18.934Z,28.20
2023-04-16T00:43:18.945Z,28.20
2023-04-16T00:44:18.981Z,28.18
2023-04-16T00:45:19.007Z,28.18
2023-04-16T00:46:19.026Z,28.17
2023-04-16T00:47:18.996Z,28.19
2023-04-16T00:48:18.990Z,28.21
2023-04-16T00:49:18.996Z,28.21
2023-04-16T00:50:19.009Z,28.17
2023-04-16T00:51:19.013Z,28.17
2023-04-16T00:52:19.020Z,28.18
2023-04-16T00:53:19.040Z,28.17
2023-04-16T00:54:19.047Z,28.22
2023-04-16T00:55:19.134Z,28.16
2023-04-16T00:56:19.069Z,28.18
2023-04-16T00:57:19.096Z,28.20
2023-04-16T00:58:19.096Z,28.19
2023-04-16T00:59:19.113Z,28.18
2023-04-16T01:00:19.127Z,28.18
2023-04-16T01:01:19.180Z,28.19
2023-04-16T01:02:19.187Z,28.17
2023-04-16T01:03:19.273Z,28.21
2023-04-16T01:04:19.204Z,28.20
2023-04-16T01:05:19.161Z,28.17
2023-04-16T01:06:19.171Z,28.17
2023-04-16T01:07:19.181Z,28.18
2023-04-16T01:08:19.191Z,28.17
2023-04-16T01:09:19.204Z,28.18
2023-04-16T01:10:19.207Z,28.22
2023-04-16T01:11:18.213Z,28.18
2023-04-16T01:12:19.222Z,28.18
2023-04-16T01:13:19.231Z,28.18
2023-04-16T01:14:19.244Z,28.15
2023-04-16T01:15:19.255Z,28.15
2023-04-16T01:16:19.302Z,28.21
2023-04-16T01:17:19.300Z,28.18
2023-04-16T01:18:19.276Z,28.18
2023-04-16T01:19:19.285Z,28.16
2023-04-16T01:20:19.298Z,28.19
2023-04-16T01:21:19.299Z,28.19
2023-04-16T01:22:19.325Z,28.22
2023-04-16T01:23:19.344Z,28.17
2023-04-16T01:24:19.346Z,28.15
2023-04-16T01:25:19.346Z,28.14
2023-04-16T01:26:19.359Z,28.19
2023-04-16T01:27:19.374Z,28.15
2023-04-16T01:28:19.385Z,28.18
2023-04-16T01:29:19.415Z,28.15
2023-04-16T01:30:19.439Z,28.18
2023-04-16T01:31:19.441Z,28.18
2023-04-16T01:32:19.450Z,28.17
2023-04-16T01:33:19.469Z,28.15
2023-04-16T01:34:19.452Z,28.19
2023-04-16T01:35:19.472Z,28.19
2023-04-16T01:36:19.483Z,28.21
2023-04-16T01:37:19.494Z,28.19
2023-04-16T01:38:19.513Z,28.16
2023-04-16T01:39:19.536Z,28.18
2023-04-16T01:40:19.558Z,28.18
2023-04-16T01:41:19.581Z,28.19
2023-04-16T01:42:19.577Z,28.17
2023-04-16T01:43:19.599Z,28.15
2023-04-16T01:44:19.601Z,28.22
2023-04-16T01:45:19.621Z,28.18
2023-04-16T01:46:19.678Z,28.18
2023-04-16T01:47:19.674Z,28.19
2023-04-16T01:48:19.721Z,28.19
2023-04-16T01:49:19.698Z,28.15
2023-04-16T01:50:19.691Z,28.15
2023-04-16T01:51:19.698Z,28.22
2023-04-16T01:52:19.712Z,28.19
2023-04-16T01:53:19.728Z,28.19
2023-04-16T01:54:19.758Z,28.18
2023-04-16T01:55:19.751Z,28.18
2023-04-16T01:56:19.756Z,28.20
2023-04-16T01:57:19.769Z,28.18
2023-04-16T01:58:19.780Z,28.19
2023-04-16T01:59:19.788Z,28.15
2023-04-16T02:00:19.808Z,28.20
2023-04-16T02:01:19.878Z,28.19
2023-04-16T02:02:19.955Z,28.14
2023-04-16T02:03:20.002Z,28.16
2023-04-16T02:04:19.879Z,28.14
2023-04-16T02:05:19.909Z,28.16
2023-04-16T02:06:19.899Z,28.16
2023-04-16T02:07:19.911Z,28.18
2023-04-16T02:08:19.924Z,28.17
2023-04-16T02:09:19.932Z,28.17
2023-04-16T02:10:19.943Z,28.16
2023-04-16T02:11:19.959Z,28.15
2023-04-16T02:12:19.974Z,28.14
2023-04-16T02:13:20.006Z,28.15
2023-04-16T02:14:20.007Z,28.16
2023-04-16T02:15:20.015Z,28.12
2023-04-16T02:16:20.089Z,28.19
2023-04-16T02:17:20.095Z,28.16
2023-04-16T02:18:20.055Z,28.14
2023-04-16T02:19:20.064Z,28.18
2023-04-16T02:20:20.074Z,28.12
2023-04-16T02:21:20.104Z,28.17
2023-04-16T02:22:20.117Z,28.15
2023-04-16T02:23:20.108Z,28.17
2023-04-16T02:24:20.151Z,28.15
2023-04-16T02:25:20.148Z,28.15
2023-04-16T02:26:20.142Z,28.14
2023-04-16T02:27:20.151Z,28.15
2023-04-16T02:28:20.158Z,28.19
2023-04-16T02:29:20.184Z,28.18
2023-04-16T02:30:20.199Z,28.16
2023-04-16T02:31:20.224Z,28.16
2023-04-16T02:32:20.250Z,28.19
2023-04-16T02:33:20.241Z,28.15
2023-04-16T02:34:20.257Z,28.16
2023-04-16T02:35:20.281Z,28.16
2023-04-16T02:36:20.284Z,28.14
2023-04-16T02:37:20.332Z,28.18
2023-04-16T02:38:20.338Z,28.15
2023-04-16T02:39:20.335Z,28.15
2023-04-16T02:40:20.355Z,28.08
2023-04-16T02:41:20.361Z,28.12
2023-04-16T02:42:20.371Z,28.12
2023-04-16T02:43:20.390Z,28.11
2023-04-16T02:44:20.396Z,28.15
2023-04-16T02:45:20.425Z,28.15
2023-04-16T02:46:20.441Z,28.14
2023-04-16T02:47:20.444Z,28.12
2023-04-16T02:48:20.450Z,28.18
2023-04-16T02:49:20.467Z,28.11
2023-04-16T02:50:20.484Z,28.12
2023-04-16T02:51:20.507Z,28.11
2023-04-16T02:52:20.521Z,28.08
2023-04-16T02:53:20.579Z,28.14
2023-04-16T02:54:20.551Z,28.15
2023-04-16T02:55:20.576Z,28.12
2023-04-16T02:56:20.576Z,28.12
2023-04-16T02:57:20.599Z,28.14
2023-04-16T02:58:20.608Z,28.11
2023-04-16T02:59:20.619Z,28.10
2023-04-16T03:00:20.634Z,28.14
2023-04-16T03:01:20.710Z,28.16
2023-04-16T03:02:20.710Z,28.09
2023-04-16T03:03:20.758Z,28.12
2023-04-16T03:04:20.804Z,28.15
2023-04-16T03:05:20.696Z,28.09
2023-04-16T03:06:20.696Z,28.12
2023-04-16T03:07:20.733Z,28.08
2023-04-16T03:08:20.722Z,28.13
2023-04-16T03:09:20.761Z,28.11
2023-04-16T03:10:20.749Z,28.15
2023-04-16T03:11:20.766Z,28.14
2023-04-16T03:12:20.787Z,28.12
2023-04-16T03:13:20.811Z,28.12
2023-04-16T03:14:20.821Z,28.15
2023-04-16T03:15:20.850Z,28.08
2023-04-16T03:16:20.966Z,28.09
2023-04-16T03:17:20.919Z,28.12
2023-04-16T03:18:20.911Z,28.19
2023-04-16T03:19:20.938Z,28.11
2023-04-16T03:20:20.985Z,28.08
2023-04-16T03:21:21.021Z,28.11
2023-04-16T03:22:21.049Z,28.16
2023-04-16T03:23:21.061Z,28.11
2023-04-16T03:24:21.079Z,28.15
2023-04-16T03:25:21.130Z,28.11
2023-04-16T03:26:21.133Z,28.09
2023-04-16T03:27:21.156Z,28.14
2023-04-16T03:28:21.186Z,28.14
2023-04-16T03:29:21.214Z,28.14
2023-04-16T03:30:21.232Z,28.08
2023-04-16T03:31:21.288Z,28.12
2023-04-16T03:32:21.304Z,28.12
2023-04-16T03:33:21.307Z,28.12
2023-04-16T03:34:21.349Z,28.12
2023-04-16T03:35:21.369Z,28.15
2023-04-16T03:36:21.382Z,28.12
2023-04-16T03:37:21.416Z,28.15
2023-04-16T03:38:21.435Z,28.08
2023-04-16T03:39:21.476Z,28.12
2023-04-16T03:40:21.475Z,28.12
2023-04-16T03:41:21.534Z,28.14
2023-04-16T03:42:21.522Z,28.14
2023-04-16T03:43:21.550Z,28.12
2023-04-16T03:44:21.572Z,28.13
2023-04-16T03:45:21.603Z,28.12
2023-04-16T03:46:21.645Z,28.11
2023-04-16T03:47:21.679Z,28.10
2023-04-16T03:48:21.672Z,28.16
2023-04-16T03:49:21.700Z,28.11
2023-04-16T03:50:21.720Z,28.07
2023-04-16T03:51:21.744Z,28.13
2023-04-16T03:52:21.767Z,28.11
2023-04-16T03:53:21.798Z,28.15
2023-04-16T03:54:22.930Z,28.09
2023-04-16T03:55:21.828Z,28.08
2023-04-16T03:56:21.852Z,28.12
2023-04-16T03:57:21.892Z,28.12
2023-04-16T03:58:21.891Z,28.15
2023-04-16T03:59:21.919Z,28.15
2023-04-16T04:00:21.958Z,28.07
2023-04-16T04:01:21.990Z,28.12
2023-04-16T04:02:22.250Z,28.12
2023-04-16T04:03:22.300Z,28.12
2023-04-16T04:04:22.110Z,28.13
2023-04-16T04:05:22.066Z,28.11
2023-04-16T04:06:22.105Z,28.08
2023-04-16T04:07:22.110Z,28.09
2023-04-16T04:08:22.131Z,28.11
2023-04-16T04:09:22.154Z,28.12
2023-04-16T04:10:22.178Z,28.11
2023-04-16T04:11:22.198Z,28.08
2023-04-16T04:12:22.223Z,28.09
2023-04-16T04:13:22.266Z,28.11
2023-04-16T04:14:22.269Z,28.09
2023-04-16T04:15:22.326Z,28.15
2023-04-16T04:16:22.376Z,28.12
2023-04-16T04:17:22.414Z,28.13
2023-04-16T04:18:22.371Z,28.13
2023-04-16T04:19:22.388Z,28.08
2023-04-16T04:20:22.408Z,28.10
2023-04-16T04:21:22.464Z,28.13
2023-04-16T04:22:22.458Z,28.09
2023-04-16T04:23:22.476Z,28.12
2023-04-16T04:24:22.541Z,28.16
2023-04-16T04:25:22.553Z,28.07
2023-04-16T04:26:22.628Z,28.07
2023-04-16T04:27:22.591Z,28.09
2023-04-16T04:28:22.634Z,28.08
2023-04-16T04:29:22.728Z,28.08
2023-04-16T04:30:22.665Z,28.12
2023-04-16T04:31:22.752Z,28.11
2023-04-16T04:32:22.779Z,28.09
2023-04-16T04:33:22.742Z,28.07
2023-04-16T04:34:22.763Z,28.10
2023-04-16T04:35:22.798Z,28.16
2023-04-16T04:36:22.811Z,28.14
2023-04-16T04:37:22.831Z,28.09
2023-04-16T04:38:22.854Z,28.08
2023-04-16T04:39:22.872Z,28.08
2023-04-16T04:40:22.891Z,28.09
2023-04-16T04:41:22.935Z,28.11
2023-04-16T04:42:22.941Z,28.08
2023-04-16T04:43:22.971Z,28.09
2023-04-16T04:44:22.992Z,28.09
2023-04-16T04:45:23.038Z,28.12
2023-04-16T04:46:23.047Z,28.12
2023-04-16T04:47:23.093Z,28.08
2023-04-16T04:48:23.070Z,28.07
2023-04-16T04:49:23.082Z,28.11
2023-04-16T04:50:23.123Z,28.15
2023-04-16T04:51:23.137Z,28.07
2023-04-16T04:52:23.151Z,28.09
2023-04-16T04:53:23.175Z,28.09
2023-04-16T04:54:23.193Z,28.07
2023-04-16T04:55:23.216Z,28.09
2023-04-16T04:56:23.239Z,28.12
2023-04-16T04:57:23.268Z,28.09
2023-04-16T04:58:23.293Z,28.08
2023-04-16T04:59:23.310Z,28.09
2023-04-16T05:00:23.334Z,28.09
2023-04-16T05:01:23.418Z,28.12
2023-04-16T05:02:23.439Z,28.08
2023-04-16T05:03:23.527Z,28.11
2023-04-16T05:04:23.439Z,28.09
2023-04-16T05:05:23.488Z,28.11
2023-04-16T05:06:23.501Z,28.04
2023-04-16T05:07:23.507Z,28.08
2023-04-16T05:08:23.540Z,28.07
2023-04-16T05:09:23.561Z,28.05
2023-04-16T05:10:23.591Z,28.04
2023-04-16T05:11:23.613Z,28.09
2023-04-16T05:12:23.634Z,28.04
2023-04-16T05:13:23.657Z,28.07
2023-04-16T05:14:23.674Z,28.09
2023-04-16T05:15:23.690Z,28.08
2023-04-16T05:16:23.728Z,28.04
2023-04-16T05:17:23.774Z,28.02
2023-04-16T05:18:23.746Z,28.04
2023-04-16T05:19:23.773Z,28.07
2023-04-16T05:20:23.788Z,28.08
2023-04-16T05:21:23.809Z,28.04
2023-04-16T05:22:23.835Z,28.07
2023-04-16T05:23:23.851Z,28.04
2023-04-16T05:24:23.874Z,28.05
2023-04-16T05:25:23.893Z,28.05
2023-04-16T05:26:23.913Z,28.07
2023-04-16T05:27:23.938Z,28.04
2023-04-16T05:28:23.960Z,28.05
2023-04-16T05:29:23.995Z,28.08
2023-04-16T05:30:23.996Z,28.01
2023-04-16T05:31:24.106Z,28.07
2023-04-16T05:32:24.061Z,28.07
2023-04-16T05:33:24.108Z,28.07
2023-04-16T05:34:24.104Z,28.04
2023-04-16T05:35:24.135Z,28.04
2023-04-16T05:36:24.152Z,28.03
2023-04-16T05:37:24.168Z,28.03
2023-04-16T05:38:24.188Z,28.03
2023-04-16T05:39:24.226Z,28.04
2023-04-16T05:40:24.267Z,28.03
2023-04-16T05:41:24.266Z,28.02
2023-04-16T05:42:24.276Z,28.00
2023-04-16T05:43:24.308Z,28.01
2023-04-16T05:44:25.316Z,28.05
2023-04-16T05:45:26.675Z,28.04
2023-04-16T05:46:24.358Z,28.03
2023-04-16T05:47:24.333Z,28.03
2023-04-16T05:48:24.328Z,27.99
2023-04-16T05:49:24.329Z,28.00
2023-04-16T05:50:24.300Z,28.02
2023-04-16T05:51:24.272Z,28.01
2023-04-16T05:52:24.268Z,28.03
2023-04-16T05:53:24.248Z,27.98
2023-04-16T05:54:24.247Z,28.00
2023-04-16T05:55:24.230Z,27.99
2023-04-16T05:56:24.207Z,28.02
2023-04-16T05:57:24.192Z,28.02
2023-04-16T05:58:24.177Z,28.08
2023-04-16T05:59:24.161Z,28.00
2023-04-16T06:00:24.158Z,28.00
2023-04-16T06:01:24.141Z,28.02
2023-04-16T06:02:24.373Z,27.97
2023-04-16T06:03:24.220Z,28.00
2023-04-16T06:04:24.205Z,28.00
2023-04-16T06:05:24.244Z,27.99
2023-04-16T06:06:24.084Z,28.00
2023-04-16T06:07:24.065Z,27.97
2023-04-16T06:08:24.072Z,27.93
2023-04-16T06:09:24.038Z,27.98
2023-04-16T06:10:24.022Z,27.98
2023-04-16T06:11:23.997Z,27.93
2023-04-16T06:12:23.975Z,27.93
2023-04-16T06:13:23.980Z,27.96
2023-04-16T06:14:23.952Z,27.95
2023-04-16T06:15:23.964Z,27.99
2023-04-16T06:16:24.034Z,27.94
2023-04-16T06:17:24.026Z,27.94
2023-04-16T06:18:24.004Z,27.90
2023-04-16T06:19:24.032Z,27.91
2023-04-16T06:20:24.039Z,27.91
2023-04-16T06:21:24.086Z,27.94
2023-04-16T06:22:24.078Z,27.88
2023-04-16T06:23:24.087Z,27.91
2023-04-16T06:24:24.107Z,27.88
2023-04-16T06:25:24.124Z,27.88
2023-04-16T06:26:24.131Z,27.86
2023-04-16T06:27:24.141Z,27.90
2023-04-16T06:28:24.162Z,27.86
2023-04-16T06:29:30.667Z,27.85
2023-04-16T06:30:24.176Z,27.87
2023-04-16T06:31:24.180Z,27.86
2023-04-16T06:32:24.158Z,27.86
2023-04-16T06:33:24.122Z,27.93
2023-04-16T06:34:24.103Z,27.89
2023-04-16T06:35:24.089Z,27.84
2023-04-16T06:36:24.075Z,27.83
2023-04-16T06:37:24.089Z,27.89
2023-04-16T06:38:24.076Z,27.87
2023-04-16T06:39:24.057Z,27.86
2023-04-16T06:40:24.041Z,27.83
2023-04-16T06:41:24.048Z,27.85
2023-04-16T06:42:24.091Z,27.90
2023-04-16T06:43:24.065Z,27.82
2023-04-16T06:44:24.013Z,27.89
2023-04-16T06:45:23.999Z,27.83
2023-04-16T06:46:24.023Z,27.85
2023-04-16T06:47:24.055Z,27.90
2023-04-16T06:48:23.941Z,27.84
2023-04-16T06:49:23.928Z,27.87
2023-04-16T06:50:23.915Z,27.86
2023-04-16T06:51:23.913Z,27.85
2023-04-16T06:52:23.911Z,27.87
2023-04-16T06:53:23.951Z,27.90
2023-04-16T06:54:23.885Z,27.89
2023-04-16T06:55:23.884Z,27.90
2023-04-16T06:56:23.881Z,27.86
2023-04-16T06:57:23.885Z,27.91
2023-04-16T06:58:23.849Z,27.89
2023-04-16T06:59:23.844Z,27.86
2023-04-16T07:00:23.823Z,27.85
2023-04-16T07:01:23.878Z,27.90
2023-04-16T07:02:24.015Z,27.87
2023-04-16T07:03:23.977Z,27.83
2023-04-16T07:04:23.880Z,27.89
2023-04-16T07:05:23.817Z,27.94
2023-04-16T07:06:23.784Z,27.85
2023-04-16T07:07:23.769Z,27.90
2023-04-16T07:08:23.765Z,27.87
2023-04-16T07:09:23.782Z,27.85
2023-04-16T07:10:23.763Z,27.89
2023-04-16T07:11:23.755Z,27.87
2023-04-16T07:12:23.740Z,27.86
2023-04-16T07:13:23.716Z,27.87
2023-04-16T07:14:23.696Z,27.86
2023-04-16T07:15:23.688Z,27.89
2023-04-16T07:16:23.747Z,27.89
2023-04-16T07:17:23.672Z,27.87
2023-04-16T07:18:23.668Z,27.89
2023-04-16T07:19:23.639Z,27.90
2023-04-16T07:20:23.621Z,27.87
2023-04-16T07:21:23.617Z,27.88
2023-04-16T07:22:23.596Z,27.89
2023-04-16T07:23:23.593Z,27.91
2023-04-16T07:24:23.573Z,27.93
2023-04-16T07:25:23.584Z,27.90
2023-04-16T07:26:23.555Z,27.91
2023-04-16T07:27:23.545Z,27.93
2023-04-16T07:28:23.532Z,27.90
2023-04-16T07:29:23.539Z,27.94
2023-04-16T07:30:23.517Z,27.90
2023-04-16T07:31:23.567Z,27.93
2023-04-16T07:32:23.684Z,27.87
2023-04-16T07:33:23.556Z,27.90
2023-04-16T07:34:23.585Z,27.87
2023-04-16T07:35:23.590Z,27.93
2023-04-16T07:36:23.595Z,27.85
2023-04-16T07:37:23.609Z,27.90
2023-04-16T07:38:23.621Z,27.92
2023-04-16T07:39:23.635Z,27.90
2023-04-16T07:40:23.672Z,27.94
2023-04-16T07:41:23.700Z,27.92
2023-04-16T07:42:23.678Z,27.89
2023-04-16T07:43:23.678Z,27.87
2023-04-16T07:44:23.698Z,27.89
2023-04-16T07:45:23.700Z,27.93
2023-04-16T07:46:24.968Z,27.88
2023-04-16T07:47:23.827Z,27.92
2023-04-16T07:48:23.698Z,27.86
2023-04-16T07:49:23.669Z,27.90
2023-04-16T07:50:23.700Z,27.92
2023-04-16T07:51:23.637Z,27.86
2023-04-16T07:52:23.620Z,27.85
2023-04-16T07:53:23.614Z,27.85
2023-04-16T07:54:23.619Z,27.91
2023-04-16T07:55:23.620Z,27.86
2023-04-16T07:56:23.598Z,27.89
2023-04-16T07:57:23.621Z,27.88
2023-04-16T07:58:23.604Z,27.84
2023-04-16T07:59:24.530Z,27.85
2023-04-16T08:00:23.584Z,27.81
2023-04-16T08:01:23.557Z,27.82
2023-04-16T08:02:23.743Z,27.85
2023-04-16T08:03:23.805Z,27.84
2023-04-16T08:04:23.797Z,27.80
2023-04-16T08:05:23.632Z,27.84
2023-04-16T08:06:23.501Z,27.83
2023-04-16T08:07:23.505Z,27.80
2023-04-16T08:08:23.508Z,27.82
2023-04-16T08:09:23.505Z,27.80
2023-04-16T08:10:23.478Z,27.77
2023-04-16T08:11:23.479Z,27.76
2023-04-16T08:12:23.462Z,27.83
2023-04-16T08:13:23.488Z,27.85
2023-04-16T08:14:23.458Z,27.87
2023-04-16T08:15:23.467Z,27.85
2023-04-16T08:16:23.464Z,27.84
2023-04-16T08:17:23.947Z,27.85
2023-04-16T08:18:23.422Z,27.79
2023-04-16T08:19:23.431Z,27.85
2023-04-16T08:20:23.454Z,27.80
2023-04-16T08:21:23.395Z,27.81
2023-04-16T08:22:23.446Z,27.80
2023-04-16T08:23:23.387Z,27.81
2023-04-16T08:24:23.384Z,27.80
2023-04-16T08:25:23.386Z,27.85
2023-04-16T08:26:23.406Z,27.80
2023-04-16T08:27:23.405Z,27.77
2023-04-16T08:28:23.415Z,27.87
2023-04-16T08:29:23.440Z,27.82
2023-04-16T08:30:23.426Z,27.83
2023-04-16T08:31:23.479Z,27.83
2023-04-16T08:32:23.472Z,27.81
2023-04-16T08:33:23.450Z,27.83
2023-04-16T08:34:23.454Z,27.81
2023-04-16T08:35:23.464Z,27.84
2023-04-16T08:36:23.461Z,27.86
2023-04-16T08:37:23.474Z,27.81
2023-04-16T08:38:23.484Z,27.81
2023-04-16T08:39:23.483Z,27.80
2023-04-16T08:40:23.489Z,27.81
2023-04-16T08:41:23.525Z,27.84
2023-04-16T08:42:23.510Z,27.80
2023-04-16T08:43:23.512Z,27.79
2023-04-16T08:44:23.524Z,27.77
2023-04-16T08:45:23.563Z,27.79
2023-04-16T08:46:23.619Z,27.83
2023-04-16T08:47:23.554Z,27.77
2023-04-16T08:48:23.564Z,27.73
2023-04-16T08:49:23.601Z,27.79
2023-04-16T08:50:23.592Z,27.74
2023-04-16T08:51:23.604Z,27.79
2023-04-16T08:52:23.600Z,27.76
2023-04-16T08:53:23.614Z,27.76
2023-04-16T08:54:23.615Z,27.74
2023-04-16T08:55:23.626Z,27.75
2023-04-16T08:56:23.680Z,27.74
2023-04-16T08:57:23.662Z,27.76
2023-04-16T08:58:23.643Z,27.74
2023-04-16T08:59:23.637Z,27.78
2023-04-16T09:00:23.631Z,27.74
2023-04-16T09:01:23.694Z,27.78
2023-04-16T09:02:23.880Z,27.76
2023-04-16T09:03:23.754Z,27.75
2023-04-16T09:04:23.762Z,27.74
2023-04-16T09:05:23.648Z,27.76
2023-04-16T09:06:23.670Z,27.79
2023-04-16T09:07:23.670Z,27.74
2023-04-16T09:08:23.665Z,27.75
2023-04-16T09:09:23.658Z,27.71
2023-04-16T09:10:23.684Z,27.76
2023-04-16T09:11:23.687Z,27.74
2023-04-16T09:12:23.677Z,27.75
2023-04-16T09:13:23.698Z,27.75
2023-04-16T09:14:23.672Z,27.74
2023-04-16T09:15:23.678Z,27.76
2023-04-16T09:16:23.717Z,27.69
2023-04-16T09:17:23.735Z,27.73
2023-04-16T09:18:23.689Z,27.74
2023-04-16T09:19:23.696Z,27.70
2023-04-16T09:20:23.696Z,27.72
2023-04-16T09:21:24.104Z,27.71
2023-04-16T09:22:23.707Z,27.69
2023-04-16T09:23:23.708Z,27.69
2023-04-16T09:24:23.702Z,27.70
2023-04-16T09:25:23.711Z,27.70
2023-04-16T09:26:23.708Z,27.67
2023-04-16T09:27:25.469Z,27.69
2023-04-16T09:28:23.694Z,27.69
2023-04-16T09:29:23.684Z,27.74
2023-04-16T09:30:23.687Z,27.73
2023-04-16T09:31:23.709Z,27.70
2023-04-16T09:32:23.696Z,27.71
2023-04-16T09:33:23.685Z,27.70
2023-04-16T09:34:23.648Z,27.71
2023-04-16T09:35:23.649Z,27.70
2023-04-16T09:36:23.630Z,27.67
2023-04-16T09:37:23.604Z,27.74
2023-04-16T09:38:23.583Z,27.67
2023-04-16T09:39:23.576Z,27.74
2023-04-16T09:40:23.559Z,27.77
2023-04-16T09:41:23.566Z,27.71
2023-04-16T09:42:23.509Z,27.71
2023-04-16T09:43:23.495Z,27.73
2023-04-16T09:44:23.485Z,27.74
2023-04-16T09:45:23.464Z,27.73
2023-04-16T09:46:23.552Z,27.74
2023-04-16T09:47:23.487Z,27.76
2023-04-16T09:48:23.433Z,27.69
2023-04-16T09:49:23.438Z,27.73
2023-04-16T09:50:23.397Z,27.72
2023-04-16T09:51:23.395Z,27.70
2023-04-16T09:52:23.391Z,27.70
2023-04-16T09:53:23.372Z,27.70
2023-04-16T09:54:23.354Z,27.70
2023-04-16T09:55:23.357Z,27.69
2023-04-16T09:56:23.329Z,27.70
2023-04-16T09:57:23.346Z,27.70
2023-04-16T09:58:23.313Z,27.70
2023-04-16T09:59:23.302Z,27.69
2023-04-16T10:00:23.310Z,27.70
2023-04-16T10:01:23.325Z,27.70
2023-04-16T10:02:23.387Z,27.70
2023-04-16T10:03:23.342Z,27.70
2023-04-16T10:04:23.293Z,27.69
2023-04-16T10:05:23.264Z,27.73
2023-04-16T10:06:23.422Z,27.67
2023-04-16T10:07:23.223Z,27.65
2023-04-16T10:08:23.220Z,27.66
2023-04-16T10:09:23.213Z,27.66
2023-04-16T10:10:23.210Z,27.68
2023-04-16T10:11:23.196Z,27.65
2023-04-16T10:12:23.192Z,27.68
2023-04-16T10:13:23.175Z,27.63
2023-04-16T10:14:23.162Z,27.64
2023-04-16T10:15:23.157Z,27.62
2023-04-16T10:16:23.165Z,27.61
2023-04-16T10:17:23.130Z,27.68
2023-04-16T10:18:23.170Z,27.64
2023-04-16T10:19:23.117Z,27.64
2023-04-16T10:20:23.126Z,27.62
2023-04-16T10:21:23.122Z,27.62
2023-04-16T10:22:23.077Z,27.62
2023-04-16T10:23:23.071Z,27.65
2023-04-16T10:24:23.061Z,27.65
2023-04-16T10:25:23.052Z,27.66
2023-04-16T10:26:23.041Z,27.64
2023-04-16T10:27:23.032Z,27.66
2023-04-16T10:28:23.021Z,27.65
2023-04-16T10:29:23.027Z,27.64
2023-04-16T10:30:22.989Z,27.66
2023-04-16T10:31:23.003Z,27.64
2023-04-16T10:32:22.981Z,27.68
2023-04-16T10:33:22.955Z,27.64
2023-04-16T10:34:22.947Z,27.66
2023-04-16T10:35:22.938Z,27.67
2023-04-16T10:36:22.941Z,27.68
2023-04-16T10:37:22.943Z,27.64
2023-04-16T10:38:22.922Z,27.72
2023-04-16T10:39:22.886Z,27.69
2023-04-16T10:40:22.884Z,27.72
2023-04-16T10:41:22.864Z,27.70
2023-04-16T10:42:22.842Z,27.68
2023-04-16T10:43:22.834Z,27.72
2023-04-16T10:44:22.819Z,27.73
2023-04-16T10:45:22.804Z,27.72
2023-04-16T10:46:22.862Z,27.72
2023-04-16T10:47:22.802Z,27.75
2023-04-16T10:48:22.736Z,27.73
2023-04-16T10:49:22.727Z,27.79
2023-04-16T10:50:22.699Z,27.73
2023-04-16T10:51:22.713Z,27.73
2023-04-16T10:52:22.682Z,27.77
2023-04-16T10:53:22.690Z,27.73
2023-04-16T10:54:22.662Z,27.79
2023-04-16T10:55:22.649Z,27.76
2023-04-16T10:56:22.640Z,27.72
2023-04-16T10:57:22.630Z,27.72
2023-04-16T10:58:22.630Z,27.73
2023-04-16T10:59:22.614Z,27.79
2023-04-16T11:00:22.614Z,27.76
2023-04-16T11:01:22.615Z,27.72
2023-04-16T11:02:23.326Z,27.73
2023-04-16T11:03:22.725Z,27.80
2023-04-16T11:04:22.686Z,27.80
2023-04-16T11:05:22.505Z,27.75
2023-04-16T11:06:22.486Z,27.77
2023-04-16T11:07:22.480Z,27.77
2023-04-16T11:08:24.193Z,27.77
2023-04-16T11:09:22.468Z,27.73
2023-04-16T11:10:22.428Z,27.77
2023-04-16T11:11:22.453Z,27.80
2023-04-16T11:12:22.410Z,27.77
2023-04-16T11:13:22.390Z,27.77
2023-04-16T11:14:22.346Z,27.73
2023-04-16T11:15:22.324Z,27.76
2023-04-16T11:16:22.370Z,27.76
2023-04-16T11:17:22.380Z,27.73
2023-04-16T11:18:22.293Z,27.75
2023-04-16T11:19:22.277Z,27.75
2023-04-16T11:20:22.340Z,27.72
2023-04-16T11:21:22.243Z,27.77
2023-04-16T11:22:22.222Z,27.76
2023-04-16T11:23:22.214Z,27.77
2023-04-16T11:24:22.784Z,27.71
2023-04-16T11:25:22.199Z,27.75
2023-04-16T11:26:22.152Z,27.73
2023-04-16T11:27:22.136Z,27.72
2023-04-16T11:28:22.136Z,27.76
2023-04-16T11:29:22.138Z,27.73
2023-04-16T11:30:22.124Z,27.76
2023-04-16T11:31:22.170Z,27.76
2023-04-16T11:32:22.140Z,27.73
2023-04-16T11:33:22.096Z,27.75
2023-04-16T11:34:22.096Z,27.75
2023-04-16T11:35:22.086Z,27.74
2023-04-16T11:36:22.082Z,27.71
2023-04-16T11:37:22.071Z,27.71
2023-04-16T11:38:22.064Z,27.71
2023-04-16T11:39:22.052Z,27.74
2023-04-16T11:40:22.042Z,27.76
2023-04-16T11:41:22.066Z,27.75
2023-04-16T11:42:22.086Z,27.70
2023-04-16T11:43:22.024Z,27.74
2023-04-16T11:44:22.019Z,27.71
2023-04-16T11:45:22.008Z,27.64
2023-04-16T11:46:27.776Z,27.67
2023-04-16T11:47:22.110Z,27.70
2023-04-16T11:48:22.046Z,27.67
2023-04-16T11:49:21.954Z,27.67
2023-04-16T11:50:22.470Z,27.70
2023-04-16T11:51:21.926Z,27.64
2023-04-16T11:52:21.910Z,27.64
2023-04-16T11:53:21.893Z,27.62
2023-04-16T11:54:21.869Z,27.63
2023-04-16T11:55:21.842Z,27.65
2023-04-16T11:56:21.810Z,27.60
2023-04-16T11:57:21.825Z,27.63
2023-04-16T11:58:21.791Z,27.60
2023-04-16T11:59:21.781Z,27.60
2023-04-16T12:00:24.448Z,27.65
2023-04-16T12:01:21.735Z,27.64
2023-04-16T12:02:21.888Z,27.60
2023-04-16T12:03:21.891Z,27.58
2023-04-16T12:04:21.789Z,27.58
2023-04-16T12:05:21.669Z,27.56
2023-04-16T12:06:23.297Z,27.60
2023-04-16T12:07:21.638Z,27.62
2023-04-16T12:08:21.643Z,27.57
2023-04-16T12:09:21.593Z,27.58
2023-04-16T12:10:21.592Z,27.57
2023-04-16T12:11:21.559Z,27.58
2023-04-16T12:12:21.532Z,27.60
2023-04-16T12:13:21.568Z,27.53
2023-04-16T12:14:21.494Z,27.50
2023-04-16T12:15:21.469Z,27.54
2023-04-16T12:16:21.556Z,27.58
2023-04-16T12:17:21.436Z,27.54
2023-04-16T12:18:21.417Z,27.53
2023-04-16T12:19:21.427Z,27.55
2023-04-16T12:20:21.420Z,27.57
2023-04-16T12:21:21.390Z,27.53
2023-04-16T12:22:21.367Z,27.50
2023-04-16T12:23:21.363Z,27.53
2023-04-16T12:24:21.337Z,27.49
2023-04-16T12:25:21.320Z,27.50
2023-04-16T12:26:21.305Z,27.52
2023-04-16T12:27:21.291Z,27.50
2023-04-16T12:28:21.274Z,27.49
2023-04-16T12:29:21.289Z,27.53
2023-04-16T12:30:21.239Z,27.50
2023-04-16T12:31:21.231Z,27.49
2023-04-16T12:32:21.236Z,27.49
2023-04-16T12:33:21.196Z,27.53
2023-04-16T12:34:21.180Z,27.50
2023-04-16T12:35:21.164Z,27.54
2023-04-16T12:36:21.156Z,27.57
2023-04-16T12:37:21.133Z,27.54
2023-04-16T12:38:22.768Z,27.51
2023-04-16T12:39:21.112Z,27.54
2023-04-16T12:40:21.087Z,27.54
2023-04-16T12:41:21.063Z,27.61
2023-04-16T12:42:21.041Z,27.51
2023-04-16T12:43:21.015Z,27.57
2023-04-16T12:44:20.991Z,27.58
2023-04-16T12:45:21.002Z,27.58
2023-04-16T12:46:20.972Z,27.62
2023-04-16T12:47:20.932Z,27.58
2023-04-16T12:48:20.879Z,27.58
2023-04-16T12:49:20.849Z,27.58
2023-04-16T12:50:20.830Z,27.60
2023-04-16T12:51:20.813Z,27.59
2023-04-16T12:52:23.215Z,27.62